Time;durP1;ratioP1;P1;durP2;ratioP2;P2;SDS_P1;SDS_P2;PMS_P1;PMS_P2;Temp;Humidity;BMP_temperature;BMP_pressure;BME280_temperature;BME280_humidity;BME280_pressure;Samples;Min_cycle;Max_cycle;Signal;HPM_P1;HPM_P2
2021/06/26 00:02:15;;;;;;;5.03;4.63;;;16.60;99.90;;;;;;5085084;28;20221;-49
2021/06/26 00:04:42;;;;;;;5.77;5.13;;;16.60;99.90;;;;;;5093649;28;20237;-48
2021/06/26 00:07:09;;;;;;;5.43;4.93;;;16.50;99.90;;;;;;5081965;28;20229;-47
2021/06/26 00:09:36;;;;;;;5.13;4.63;;;16.40;99.90;;;;;;5084352;28;20313;-47
2021/06/26 00:12:03;;;;;;;4.87;4.47;;;16.40;99.90;;;;;;5081533;28;20193;-46
2021/06/26 00:14:31;;;;;;;4.87;4.47;;;16.50;99.90;;;;;;5084170;28;20209;-46
2021/06/26 00:16:58;;;;;;;5.87;5.37;;;16.50;99.90;;;;;;5074836;28;20213;-47
2021/06/26 00:19:25;;;;;;;5.20;4.70;;;16.50;99.90;;;;;;5095235;28;20548;-51
2021/06/26 00:21:51;;;;;;;5.20;4.80;;;16.40;99.90;;;;;;5082990;28;20301;-46
2021/06/26 00:24:18;;;;;;;5.57;5.07;;;16.40;99.90;;;;;;5079573;28;20202;-48
2021/06/26 00:26:45;;;;;;;5.40;5.00;;;16.40;99.90;;;;;;5087157;28;20202;-46
2021/06/26 00:29:11;;;;;;;4.80;4.40;;;16.40;99.90;;;;;;5083571;28;20206;-43
2021/06/26 00:31:39;;;;;;;5.33;4.90;;;16.40;99.90;;;;;;5072406;28;20216;-47
2021/06/26 00:34:06;;;;;;;6.33;5.00;;;16.40;99.90;;;;;;5094561;27;20265;-48
2021/06/26 00:36:33;;;;;;;5.80;4.90;;;16.40;99.90;;;;;;5083048;27;20787;-49
2021/06/26 00:38:59;;;;;;;5.13;4.73;;;16.40;99.90;;;;;;5084895;28;20285;-48
2021/06/26 00:41:26;;;;;;;5.07;4.13;;;16.40;99.90;;;;;;5093677;28;20217;-47
2021/06/26 00:43:53;;;;;;;5.90;5.30;;;16.30;99.90;;;;;;5096715;28;20208;-46
2021/06/26 00:46:20;;;;;;;5.10;4.70;;;16.30;99.90;;;;;;5085273;28;20292;-47
2021/06/26 00:48:47;;;;;;;5.20;4.67;;;16.30;99.90;;;;;;5076304;28;20221;-45
2021/06/26 00:51:15;;;;;;;5.77;5.37;;;16.20;99.90;;;;;;5101908;27;20231;-47
2021/06/26 00:53:41;;;;;;;5.60;5.17;;;16.20;99.90;;;;;;5083367;28;20289;-49
2021/06/26 00:56:08;;;;;;;5.57;5.17;;;16.20;99.90;;;;;;5083699;28;20213;-48
2021/06/26 00:58:35;;;;;;;5.53;4.83;;;16.20;99.90;;;;;;5080518;28;20205;-48
2021/06/26 01:01:02;;;;;;;6.47;5.60;;;16.20;99.90;;;;;;5087768;28;20711;-48
2021/06/26 01:03:29;;;;;;;6.03;5.53;;;16.20;99.90;;;;;;5071231;28;20236;-46
2021/06/26 01:05:57;;;;;;;6.13;5.03;;;16.20;99.90;;;;;;5093501;28;20198;-48
2021/06/26 01:08:25;;;;;;;5.80;5.07;;;16.30;99.90;;;;;;5081021;28;20194;-44
2021/06/26 01:10:52;;;;;;;5.37;4.47;;;16.30;99.90;;;;;;5081768;28;20589;-46
2021/06/26 01:13:18;;;;;;;5.53;5.07;;;16.20;99.90;;;;;;5081842;28;20198;-47
2021/06/26 01:15:45;;;;;;;5.43;4.97;;;16.10;99.90;;;;;;5081960;28;20206;-46
2021/06/26 01:18:11;;;;;;;6.17;5.57;;;16.00;99.90;;;;;;5103436;27;20305;-45
2021/06/26 01:20:38;;;;;;;6.63;5.33;;;15.90;99.90;;;;;;5081280;28;20213;-47
2021/06/26 01:23:07;;;;;;;6.03;5.43;;;15.80;99.90;;;;;;5070233;28;20225;-45
2021/06/26 01:25:33;;;;;;;6.73;6.03;;;15.90;99.90;;;;;;5081326;28;20424;-49
2021/06/26 01:28:01;;;;;;;5.63;5.13;;;15.90;99.90;;;;;;5084536;28;20205;-46
2021/06/26 01:30:30;;;;;;;5.57;5.07;;;15.90;99.90;;;;;;5076945;28;20217;-46
2021/06/26 01:32:57;;;;;;;5.80;5.30;;;15.90;99.90;;;;;;5094250;28;20192;-46
2021/06/26 01:35:24;;;;;;;6.60;6.00;;;15.90;99.90;;;;;;5075501;28;20202;-46
2021/06/26 01:37:51;;;;;;;5.83;5.23;;;15.90;99.90;;;;;;5088085;28;20196;-48
2021/06/26 01:40:21;;;;;;;6.70;6.10;;;15.90;99.90;;;;;;5081170;28;20724;-48
2021/06/26 01:42:49;;;;;;;5.90;5.50;;;15.90;99.90;;;;;;5081082;28;20241;-47
2021/06/26 01:45:17;;;;;;;6.33;5.83;;;15.90;99.90;;;;;;5080441;28;20733;-49
2021/06/26 01:47:48;;;;;;;5.93;5.33;;;15.70;99.90;;;;;;5093103;28;20898;-48
2021/06/26 01:50:14;;;;;;;6.17;5.63;;;15.60;99.90;;;;;;5098558;27;20695;-47
2021/06/26 01:52:43;;;;;;;7.80;6.13;;;15.60;99.90;;;;;;5080549;28;20221;-48
2021/06/26 01:55:10;;;;;;;7.63;6.07;;;15.60;99.90;;;;;;5094840;27;20255;-44
2021/06/26 01:57:38;;;;;;;6.20;5.70;;;15.60;99.90;;;;;;5081140;28;20189;-50
2021/06/26 02:00:06;;;;;;;6.37;5.77;;;15.50;99.90;;;;;;5083377;28;20230;-48
2021/06/26 02:02:39;;;;;;;7.03;5.67;;;15.40;99.90;;;;;;5079673;28;20217;-46
2021/06/26 02:05:07;;;;;;;6.43;5.83;;;15.30;99.90;;;;;;5082722;28;20232;-48
2021/06/26 02:07:34;;;;;;;5.40;4.93;;;15.30;99.90;;;;;;5086168;28;20209;-50
2021/06/26 02:10:01;;;;;;;6.80;5.67;;;15.30;99.90;;;;;;5087787;28;20236;-46
2021/06/26 02:12:28;;;;;;;6.13;5.50;;;15.30;99.90;;;;;;5079681;28;20505;-47
2021/06/26 02:14:56;;;;;;;6.13;5.53;;;15.40;99.90;;;;;;5079203;28;20565;-48
2021/06/26 02:17:22;;;;;;;6.97;6.00;;;15.40;99.90;;;;;;5083338;28;20211;-50
2021/06/26 02:19:50;;;;;;;7.20;6.50;;;15.40;99.90;;;;;;5089640;27;20214;-46
2021/06/26 02:22:18;;;;;;;6.90;6.30;;;15.50;99.90;;;;;;5072864;28;20221;-46
2021/06/26 02:24:45;;;;;;;6.70;6.10;;;15.40;99.90;;;;;;5092538;28;21646;-44
2021/06/26 02:27:11;;;;;;;6.93;6.33;;;15.40;99.90;;;;;;5092316;27;20205;-44
2021/06/26 02:29:38;;;;;;;6.40;5.80;;;15.40;99.90;;;;;;5078785;28;20915;-47
2021/06/26 02:32:07;;;;;;;6.77;6.17;;;15.30;99.90;;;;;;5084724;28;20205;-48
2021/06/26 02:34:34;;;;;;;6.70;6.10;;;15.30;99.90;;;;;;5080274;28;20493;-47
2021/06/26 02:37:01;;;;;;;6.77;6.10;;;15.30;99.90;;;;;;5071316;28;20311;-47
2021/06/26 02:39:28;;;;;;;6.90;6.27;;;15.30;99.90;;;;;;5090645;28;20913;-48
2021/06/26 02:41:55;;;;;;;6.30;5.80;;;15.20;99.90;;;;;;5086017;28;20768;-47
2021/06/26 02:44:21;;;;;;;7.03;6.43;;;15.20;99.90;;;;;;5076771;28;20201;-49
2021/06/26 02:46:50;;;;;;;6.80;6.17;;;15.20;99.90;;;;;;5095283;28;20200;-46
2021/06/26 02:49:18;;;;;;;7.80;5.90;;;15.30;99.90;;;;;;5094128;28;20239;-45
2021/06/26 02:51:45;;;;;;;6.57;5.97;;;15.30;99.90;;;;;;5064003;28;20206;-46
2021/06/26 02:54:13;;;;;;;6.70;6.20;;;15.30;99.90;;;;;;5081094;28;20206;-47
2021/06/26 02:56:39;;;;;;;7.47;6.03;;;15.30;99.90;;;;;;5088832;28;20194;-47
2021/06/26 02:59:06;;;;;;;7.03;6.33;;;15.20;99.90;;;;;;5082460;28;20205;-47
2021/06/26 03:01:32;;;;;;;6.30;5.70;;;15.10;99.90;;;;;;5076726;28;20210;-46
2021/06/26 03:03:59;;;;;;;6.60;6.00;;;15.20;99.90;;;;;;5082615;28;20858;-47
2021/06/26 03:06:27;;;;;;;6.87;6.30;;;15.20;99.90;;;;;;5078958;28;20190;-47
2021/06/26 03:08:54;;;;;;;7.00;6.40;;;15.10;99.90;;;;;;5071724;28;20234;-48
2021/06/26 03:11:20;;;;;;;6.33;5.83;;;15.10;99.90;;;;;;5090174;28;20603;-47
2021/06/26 03:13:47;;;;;;;7.27;6.43;;;15.10;99.90;;;;;;5070508;28;20566;-47
2021/06/26 03:16:14;;;;;;;7.47;6.27;;;15.10;99.90;;;;;;5087216;28;20213;-48
2021/06/26 03:18:43;;;;;;;7.33;6.73;;;15.00;99.90;;;;;;5090503;27;20944;-49
2021/06/26 03:21:10;;;;;;;6.00;5.50;;;15.00;99.90;;;;;;5070550;28;20710;-46
2021/06/26 03:23:38;;;;;;;6.93;6.33;;;15.00;99.90;;;;;;5093905;28;20930;-49
2021/06/26 03:26:05;;;;;;;7.47;6.80;;;15.00;99.90;;;;;;5080212;28;20210;-48
2021/06/26 03:28:32;;;;;;;7.07;6.33;;;14.90;99.90;;;;;;5095738;27;20202;-46
2021/06/26 03:30:59;;;;;;;7.13;6.40;;;15.00;99.90;;;;;;5084032;28;20214;-46
2021/06/26 03:33:25;;;;;;;8.37;6.17;;;15.00;99.90;;;;;;5082106;28;20272;-47
2021/06/26 03:35:52;;;;;;;7.17;6.57;;;15.00;99.90;;;;;;5086127;28;20209;-50
2021/06/26 03:38:18;;;;;;;6.93;6.33;;;15.00;99.90;;;;;;5084099;28;20210;-46
2021/06/26 03:40:49;;;;;;;6.77;6.20;;;15.10;99.90;;;;;;5073518;28;20225;-46
2021/06/26 03:43:15;;;;;;;7.10;6.00;;;15.10;99.90;;;;;;5097381;27;20299;-46
2021/06/26 03:45:42;;;;;;;6.93;6.27;;;15.10;99.90;;;;;;5084917;28;20208;-47
2021/06/26 03:48:09;;;;;;;6.77;6.00;;;15.20;99.90;;;;;;5093925;27;20206;-51
2021/06/26 03:50:37;;;;;;;6.33;5.73;;;15.20;99.90;;;;;;5083470;27;20312;-46
2021/06/26 03:53:04;;;;;;;8.53;7.30;;;15.20;99.90;;;;;;5091235;28;20228;-50
2021/06/26 03:55:31;;;;;;;6.80;6.20;;;15.20;99.90;;;;;;5080916;28;20206;-47
2021/06/26 03:57:59;;;;;;;8.37;7.53;;;15.30;99.90;;;;;;5092865;28;20229;-47
2021/06/26 04:00:25;;;;;;;8.60;7.80;;;15.30;99.90;;;;;;5081559;28;20272;-47
2021/06/26 04:02:52;;;;;;;10.63;8.20;;;15.30;99.90;;;;;;5064704;28;20229;-49
2021/06/26 04:05:18;;;;;;;8.43;7.63;;;15.40;99.90;;;;;;5081557;28;20198;-44
2021/06/26 04:07:45;;;;;;;8.10;7.27;;;15.40;99.90;;;;;;5087220;28;20666;-46
2021/06/26 04:10:12;;;;;;;8.73;7.03;;;15.50;99.90;;;;;;5079646;28;20311;-48
2021/06/26 04:12:39;;;;;;;8.33;7.63;;;15.50;99.90;;;;;;5083227;28;20218;-48
2021/06/26 04:15:08;;;;;;;9.27;8.33;;;15.60;99.90;;;;;;5094713;28;20284;-45
2021/06/26 04:17:35;;;;;;;9.33;7.60;;;15.60;99.90;;;;;;5090857;27;20197;-47
2021/06/26 04:20:01;;;;;;;8.60;7.80;;;15.70;99.90;;;;;;5099307;27;20581;-46
2021/06/26 04:22:28;;;;;;;10.57;8.40;;;15.60;99.90;;;;;;5085306;28;20206;-46
2021/06/26 04:24:55;;;;;;;8.90;7.40;;;15.70;99.90;;;;;;5098093;28;20197;-48
2021/06/26 04:27:21;;;;;;;8.13;7.30;;;15.70;99.90;;;;;;5076394;28;20241;-49
2021/06/26 04:29:48;;;;;;;8.40;7.60;;;15.80;99.90;;;;;;5088877;28;20218;-47
2021/06/26 04:32:16;;;;;;;8.00;7.30;;;15.80;99.90;;;;;;5083407;28;20225;-48
2021/06/26 04:34:42;;;;;;;8.13;7.23;;;15.80;99.90;;;;;;5080730;28;20205;-47
2021/06/26 04:37:09;;;;;;;9.23;8.33;;;15.80;99.90;;;;;;5086040;28;20201;-47
2021/06/26 04:39:36;;;;;;;8.97;7.93;;;15.90;99.90;;;;;;5082169;28;20214;-47
2021/06/26 04:42:03;;;;;;;8.77;7.43;;;15.90;99.90;;;;;;5077039;28;20236;-48
2021/06/26 04:44:29;;;;;;;8.90;8.03;;;16.00;99.90;;;;;;5083450;28;20607;-50
2021/06/26 04:46:56;;;;;;;9.73;8.20;;;16.00;99.90;;;;;;5094733;27;20199;-47
2021/06/26 04:49:24;;;;;;;8.97;7.97;;;16.00;99.90;;;;;;5091992;27;20204;-48
2021/06/26 04:51:51;;;;;;;8.27;7.40;;;16.10;99.90;;;;;;5089881;28;20229;-48
2021/06/26 04:54:18;;;;;;;8.90;8.10;;;16.00;99.90;;;;;;5092688;28;20212;-48
2021/06/26 04:56:44;;;;;;;8.20;7.20;;;16.00;99.90;;;;;;5090995;28;20194;-49
2021/06/26 04:59:11;;;;;;;8.00;7.10;;;16.00;99.90;;;;;;5076654;28;20557;-47
2021/06/26 05:01:37;;;;;;;7.60;6.87;;;16.00;99.90;;;;;;5066539;28;20225;-46
2021/06/26 05:04:04;;;;;;;7.83;7.13;;;16.00;99.90;;;;;;5085031;28;20720;-47
2021/06/26 05:06:32;;;;;;;7.57;6.80;;;16.00;99.90;;;;;;5078266;28;20206;-49
2021/06/26 05:08:59;;;;;;;8.10;7.30;;;16.00;99.90;;;;;;5085659;28;20280;-47
2021/06/26 05:11:26;;;;;;;8.53;7.10;;;16.00;99.90;;;;;;5080457;28;20263;-46
2021/06/26 05:13:53;;;;;;;7.70;7.00;;;16.00;99.90;;;;;;5080474;28;20205;-48
2021/06/26 05:16:19;;;;;;;7.27;6.57;;;16.00;99.90;;;;;;5087290;28;20205;-48
2021/06/26 05:18:46;;;;;;;8.20;7.50;;;16.00;99.90;;;;;;5106350;27;20675;-49
2021/06/26 05:21:12;;;;;;;8.60;7.37;;;16.00;99.90;;;;;;5081127;28;20224;-50
2021/06/26 05:23:41;;;;;;;8.37;7.67;;;16.00;99.90;;;;;;5086085;28;20225;-46
2021/06/26 05:26:09;;;;;;;8.97;7.33;;;16.00;99.90;;;;;;5088930;28;20201;-48
2021/06/26 05:28:36;;;;;;;7.90;6.97;;;16.10;99.90;;;;;;5052616;28;20406;-47
2021/06/26 05:31:03;;;;;;;7.67;6.97;;;16.10;99.90;;;;;;5101415;28;20236;-46
2021/06/26 05:33:29;;;;;;;7.97;7.17;;;16.20;99.90;;;;;;5070738;27;20202;-46
2021/06/26 05:35:56;;;;;;;7.50;6.73;;;16.20;99.90;;;;;;5102305;27;20199;-45
2021/06/26 05:38:22;;;;;;;8.93;6.97;;;16.30;99.90;;;;;;5080725;28;20203;-47
2021/06/26 05:40:50;;;;;;;7.57;6.70;;;16.30;99.90;;;;;;5097775;28;20220;-46
2021/06/26 05:43:17;;;;;;;6.63;6.13;;;16.40;99.90;;;;;;5082057;28;20216;-47
2021/06/26 05:45:44;;;;;;;6.73;6.13;;;16.40;99.90;;;;;;5081682;28;20198;-63
2021/06/26 05:48:10;;;;;;;8.33;7.03;;;16.50;99.90;;;;;;5100867;27;20203;-63
2021/06/26 05:50:37;;;;;;;6.20;5.60;;;16.60;99.90;;;;;;5098852;27;20201;-62
2021/06/26 05:53:04;;;;;;;6.53;6.00;;;16.70;99.90;;;;;;5090099;28;20525;-63
2021/06/26 05:55:31;;;;;;;7.80;5.80;;;16.70;99.90;;;;;;5076819;28;20205;-62
2021/06/26 05:57:59;;;;;;;6.73;6.10;;;16.80;99.90;;;;;;5083553;28;20204;-62
2021/06/26 06:00:27;;;;;;;6.77;6.07;;;16.80;99.90;;;;;;5080284;28;20309;-63
2021/06/26 06:02:53;;;;;;;6.23;5.73;;;16.90;99.90;;;;;;5099367;28;20216;-62
2021/06/26 06:05:20;;;;;;;5.57;5.10;;;17.00;99.90;;;;;;5082781;28;20194;-64
2021/06/26 06:07:47;;;;;;;5.80;5.27;;;17.00;99.90;;;;;;5078337;28;20200;-62
2021/06/26 06:10:15;;;;;;;7.07;5.80;;;17.10;99.90;;;;;;5093178;28;20243;-63
2021/06/26 06:12:43;;;;;;;5.00;4.60;;;17.20;99.90;;;;;;5062929;27;20202;-62
2021/06/26 06:15:13;;;;;;;6.50;5.63;;;17.30;99.90;;;;;;5069017;27;20197;-62
2021/06/26 06:17:40;;;;;;;5.87;5.37;;;17.40;99.90;;;;;;5091809;28;20200;-45
2021/06/26 06:20:08;;;;;;;5.90;5.30;;;17.50;99.90;;;;;;5089268;28;20213;-46
2021/06/26 06:22:35;;;;;;;7.83;4.90;;;17.60;99.90;;;;;;5098097;27;20197;-44
2021/06/26 06:25:05;;;;;;;6.03;5.47;;;17.80;99.90;;;;;;5087904;28;20261;-42
2021/06/26 06:27:33;;;;;;;4.60;4.20;;;17.90;99.90;;;;;;5086434;28;20212;-46
2021/06/26 06:30:00;;;;;;;4.93;4.43;;;18.00;99.90;;;;;;5080693;28;20222;-44
2021/06/26 06:32:28;;;;;;;4.60;4.20;;;18.10;99.90;;;;;;5076621;28;20959;-45
2021/06/26 06:34:54;;;;;;;4.97;4.47;;;18.10;99.90;;;;;;5095495;28;20819;-44
2021/06/26 06:37:21;;;;;;;6.10;4.20;;;18.20;99.90;;;;;;5097522;28;20181;-45
2021/06/26 06:39:47;;;;;;;4.83;4.27;;;18.30;99.90;;;;;;5073164;28;20221;-46
2021/06/26 06:42:14;;;;;;;5.70;4.50;;;18.30;99.90;;;;;;5079521;28;20312;-45
2021/06/26 06:44:41;;;;;;;4.33;3.93;;;18.40;99.90;;;;;;5091958;28;20227;-46
2021/06/26 06:47:07;;;;;;;5.30;4.80;;;18.50;99.90;;;;;;5081209;28;20204;-45
2021/06/26 06:49:35;;;;;;;5.20;4.10;;;18.70;99.90;;;;;;5097275;28;20245;-45
2021/06/26 06:52:02;;;;;;;4.30;4.00;;;18.80;99.90;;;;;;5099645;28;20211;-47
2021/06/26 06:54:29;;;;;;;6.80;4.57;;;18.90;99.90;;;;;;5095929;28;20293;-46
2021/06/26 06:56:56;;;;;;;3.70;3.40;;;19.00;99.90;;;;;;5089110;28;20682;-48
2021/06/26 06:59:22;;;;;;;4.53;4.23;;;19.10;99.90;;;;;;5097089;28;20276;-47
2021/06/26 07:01:50;;;;;;;3.83;3.63;;;19.20;99.90;;;;;;5098690;28;20194;-49
2021/06/26 07:04:16;;;;;;;5.33;4.87;;;19.30;99.90;;;;;;5081533;28;20209;-47
2021/06/26 07:06:44;;;;;;;3.93;3.73;;;19.30;99.90;;;;;;5087067;28;20201;-47
2021/06/26 07:09:11;;;;;;;6.93;5.43;;;19.50;99.90;;;;;;5098411;28;20215;-46
2021/06/26 07:11:37;;;;;;;5.70;5.20;;;19.60;99.90;;;;;;5092500;28;20223;-47
2021/06/26 07:14:04;;;;;;;6.70;6.10;;;19.70;99.90;;;;;;5086572;28;20208;-48
2021/06/26 07:16:31;;;;;;;12.43;8.90;;;19.90;99.90;;;;;;5097983;28;20204;-47
2021/06/26 07:18:57;;;;;;;9.73;7.27;;;19.90;99.90;;;;;;5077799;28;20666;-46
2021/06/26 07:21:24;;;;;;;9.40;6.70;;;20.00;99.90;;;;;;5093084;28;20213;-47
2021/06/26 07:23:52;;;;;;;6.47;5.87;;;20.00;99.90;;;;;;5097706;28;20205;-49
2021/06/26 07:26:19;;;;;;;6.47;5.80;;;20.00;99.90;;;;;;5069740;28;20201;-48
2021/06/26 07:28:45;;;;;;;6.77;6.07;;;20.00;99.90;;;;;;5070718;28;20197;-49
2021/06/26 07:31:13;;;;;;;7.90;6.23;;;20.00;99.90;;;;;;5091751;28;20213;-48
2021/06/26 07:33:40;;;;;;;8.80;6.67;;;20.00;99.90;;;;;;5085381;28;20219;-47
2021/06/26 07:36:07;;;;;;;7.13;5.97;;;20.10;99.90;;;;;;5086533;28;20198;-50
2021/06/26 07:38:34;;;;;;;9.93;7.20;;;20.00;99.90;;;;;;5078160;28;20654;-47
2021/06/26 07:41:02;;;;;;;6.70;6.10;;;20.10;99.90;;;;;;5069273;28;20712;-47
2021/06/26 07:43:28;;;;;;;8.63;7.73;;;20.10;99.90;;;;;;5086236;28;20237;-47
2021/06/26 07:45:55;;;;;;;7.57;6.87;;;20.20;99.90;;;;;;5091212;28;20202;-54
2021/06/26 07:48:21;;;;;;;8.47;7.40;;;20.20;99.90;;;;;;5098514;28;20265;-47
2021/06/26 07:50:51;;;;;;;7.90;7.20;;;20.30;99.90;;;;;;5084647;28;20221;-47
2021/06/26 07:53:19;;;;;;;7.17;6.47;;;20.30;99.90;;;;;;5096611;28;20272;-47
2021/06/26 07:55:51;;;;;;;8.77;6.80;;;20.40;99.90;;;;;;5095026;28;20217;-48
2021/06/26 07:58:20;;;;;;;8.27;7.10;;;20.40;99.90;;;;;;5085579;28;20198;-47
2021/06/26 08:00:48;;;;;;;9.30;7.77;;;20.40;99.90;;;;;;5090538;28;20217;-50
2021/06/26 08:03:14;;;;;;;11.17;7.33;;;20.40;99.90;;;;;;5082122;28;20962;-47
2021/06/26 08:05:41;;;;;;;9.37;8.47;;;20.40;99.90;;;;;;5076485;28;20210;-47
2021/06/26 08:08:08;;;;;;;8.10;6.83;;;20.40;99.90;;;;;;5084147;28;20198;-50
2021/06/26 08:10:34;;;;;;;10.90;7.30;;;20.50;99.90;;;;;;5085553;28;20295;-48
2021/06/26 08:13:01;;;;;;;8.97;7.57;;;20.60;99.90;;;;;;5079138;28;20206;-48
2021/06/26 08:15:29;;;;;;;8.83;8.00;;;20.70;99.90;;;;;;5086058;28;20197;-47
2021/06/26 08:17:56;;;;;;;11.73;10.53;;;21.30;99.90;;;;;;5094171;27;20653;-48
2021/06/26 08:20:23;;;;;;;12.60;9.03;;;21.00;99.90;;;;;;5098316;27;20214;-48
2021/06/26 08:22:49;;;;;;;13.83;11.10;;;21.00;99.90;;;;;;5084328;28;20291;-49
2021/06/26 08:25:17;;;;;;;16.80;13.90;;;21.20;99.90;;;;;;5091274;28;20215;-47
2021/06/26 08:27:44;;;;;;;15.83;11.87;;;21.10;99.90;;;;;;5086498;28;20201;-49
2021/06/26 08:30:11;;;;;;;10.97;9.90;;;21.10;99.90;;;;;;5066361;28;21252;-52
2021/06/26 08:32:39;;;;;;;14.23;12.43;;;21.10;99.90;;;;;;5073000;27;20198;-50
2021/06/26 08:35:07;;;;;;;12.83;10.97;;;21.10;99.90;;;;;;5071865;27;20218;-47
2021/06/26 08:37:34;;;;;;;15.77;13.53;;;21.20;99.90;;;;;;5084041;27;20214;-47
2021/06/26 08:40:01;;;;;;;15.77;13.23;;;21.20;99.90;;;;;;5103412;27;20215;-49
2021/06/26 08:42:28;;;;;;;15.60;12.13;;;21.20;99.90;;;;;;5082523;27;20780;-47
2021/06/26 08:44:59;;;;;;;14.00;12.17;;;21.30;99.90;;;;;;5082512;28;20217;-49
2021/06/26 08:47:26;;;;;;;14.27;11.60;;;21.40;99.90;;;;;;5083041;28;20227;-48
2021/06/26 08:49:55;;;;;;;12.67;10.97;;;21.40;99.90;;;;;;5107379;27;20693;-47
2021/06/26 08:52:22;;;;;;;15.13;11.73;;;21.40;99.90;;;;;;5075726;27;20208;-49
2021/06/26 08:54:50;;;;;;;13.60;12.20;;;21.50;99.90;;;;;;5099108;27;20659;-47
2021/06/26 08:57:26;;;;;;;18.40;12.63;;;21.60;99.90;;;;;;5066116;28;20875;-46
2021/06/26 08:59:53;;;;;;;13.93;11.27;;;21.70;99.90;;;;;;5079405;28;20225;-51
2021/06/26 09:02:21;;;;;;;14.93;11.63;;;21.70;99.90;;;;;;5075283;28;20915;-49
2021/06/26 09:04:48;;;;;;;14.17;11.33;;;21.70;99.90;;;;;;5077671;28;20209;-49
2021/06/26 09:07:26;;;;;;;12.77;11.17;;;21.80;99.90;;;;;;5077487;28;20213;-49
2021/06/26 09:09:55;;;;;;;14.90;12.33;;;21.80;99.90;;;;;;5087959;28;20224;-55
2021/06/26 09:12:22;;;;;;;14.70;12.17;;;21.90;99.90;;;;;;5084567;28;20194;-51
2021/06/26 09:14:49;;;;;;;13.93;11.67;;;22.00;99.90;;;;;;5077012;28;20190;-50
2021/06/26 09:17:17;;;;;;;13.83;12.07;;;22.00;99.90;;;;;;5079977;27;20198;-50
2021/06/26 09:19:53;;;;;;;15.87;13.67;;;22.10;99.90;;;;;;5094507;27;20245;-51
2021/06/26 09:22:21;;;;;;;13.87;12.40;;;22.10;99.90;;;;;;5084525;28;20227;-48
2021/06/26 09:24:50;;;;;;;14.83;13.00;;;22.20;99.90;;;;;;5076339;28;20213;-51
2021/06/26 09:27:19;;;;;;;14.87;12.40;;;22.10;99.90;;;;;;5102267;27;20205;-48
2021/06/26 09:29:49;;;;;;;14.30;11.60;;;22.10;99.90;;;;;;5077574;28;20209;-52
2021/06/26 09:32:24;;;;;;;13.13;11.13;;;22.20;99.90;;;;;;5083115;28;20285;-46
2021/06/26 09:34:51;;;;;;;13.53;11.00;;;22.30;99.90;;;;;;5075497;28;20198;-47
2021/06/26 09:37:21;;;;;;;12.57;11.27;;;22.30;99.90;;;;;;5083733;28;20213;-48
2021/06/26 09:39:48;;;;;;;15.43;13.03;;;22.40;99.90;;;;;;5091012;27;20220;-51
2021/06/26 09:42:17;;;;;;;13.83;12.27;;;22.30;99.90;;;;;;5091680;27;20904;-48
2021/06/26 09:44:55;;;;;;;15.97;12.73;;;22.30;99.90;;;;;;5082137;28;20570;-53
2021/06/26 09:47:30;;;;;;;14.10;10.70;;;22.30;99.90;;;;;;5086168;28;20202;-49
2021/06/26 09:50:07;;;;;;;12.50;11.30;;;22.30;99.90;;;;;;5089164;27;20967;-50
2021/06/26 09:52:40;;;;;;;14.40;12.57;;;22.30;99.90;;;;;;5084954;28;20206;-48
2021/06/26 09:55:22;;;;;;;15.30;11.63;;;22.30;99.90;;;;;;5082329;28;20202;-50
2021/06/26 09:57:50;;;;;;;16.70;12.80;;;22.30;99.90;;;;;;5083295;27;20193;-50
2021/06/26 10:00:19;;;;;;;15.07;12.53;;;22.30;99.90;;;;;;5083854;28;20266;-46
2021/06/26 10:02:46;;;;;;;15.43;11.37;;;22.40;99.90;;;;;;5085249;28;20552;-48
2021/06/26 10:05:14;;;;;;;22.17;12.53;;;22.40;99.90;;;;;;5082869;28;20217;-47
2021/06/26 10:07:44;;;;;;;16.70;11.47;;;22.50;99.90;;;;;;5092103;28;20208;-50
2021/06/26 10:10:12;;;;;;;11.77;10.45;;;22.70;99.90;;;;;;5080310;28;20301;-47
2021/06/26 10:12:40;;;;;;;15.73;11.70;;;22.80;99.90;;;;;;5082497;28;20655;-50
2021/06/26 10:15:08;;;;;;;15.70;13.13;;;22.80;99.90;;;;;;5090334;28;20204;-48
2021/06/26 10:17:36;;;;;;;14.43;11.75;;;22.90;99.00;;;;;;5082752;28;20198;-49
2021/06/26 10:20:04;;;;;;;12.35;10.95;;;22.90;99.20;;;;;;5079903;28;20217;-47
2021/06/26 10:22:31;;;;;;;14.07;11.10;;;23.00;99.10;;;;;;5089041;28;20206;-48
2021/06/26 10:25:02;;;;;;;12.50;10.75;;;23.00;99.60;;;;;;5084285;28;20221;-48
2021/06/26 10:27:28;;;;;;;14.45;11.80;;;23.10;99.70;;;;;;5088272;28;20223;-52
2021/06/26 10:29:55;;;;;;;13.93;11.60;;;23.20;98.70;;;;;;5079619;28;20222;-48
2021/06/26 10:32:22;;;;;;;12.93;11.50;;;23.40;97.90;;;;;;5090071;28;20213;-48
2021/06/26 10:34:50;;;;;;;13.40;12.00;;;23.40;97.90;;;;;;5081048;28;20196;-49
2021/06/26 10:37:18;;;;;;;14.15;11.85;;;23.40;97.20;;;;;;5096206;28;20189;-49
2021/06/26 10:39:46;;;;;;;13.75;11.80;;;23.40;97.30;;;;;;5069771;28;20225;-51
2021/06/26 10:42:18;;;;;;;14.10;12.55;;;23.20;97.10;;;;;;5090690;28;20201;-46
2021/06/26 10:44:49;;;;;;;15.98;11.63;;;23.10;96.30;;;;;;5092430;28;20224;-47
2021/06/26 10:47:17;;;;;;;13.30;10.55;;;23.10;96.90;;;;;;5099449;28;20229;-46
2021/06/26 10:49:44;;;;;;;13.98;11.40;;;23.10;97.80;;;;;;5083955;28;20217;-47
2021/06/26 10:52:16;;;;;;;12.90;11.55;;;23.20;97.30;;;;;;5087736;28;20205;-47
2021/06/26 10:54:54;;;;;;;14.52;11.70;;;23.20;96.90;;;;;;5083983;28;20194;-50
2021/06/26 10:57:23;;;;;;;14.98;11.05;;;23.20;96.90;;;;;;5081815;28;20186;-46
2021/06/26 11:00:01;;;;;;;14.93;11.85;;;23.40;97.20;;;;;;5085547;28;20771;-46
2021/06/26 11:02:41;;;;;;;11.98;10.70;;;23.50;96.60;;;;;;5084794;28;20272;-46
2021/06/26 11:05:09;;;;;;;10.98;9.77;;;23.50;96.70;;;;;;5096989;28;20217;-48
2021/06/26 11:07:36;;;;;;;13.93;11.73;;;23.50;96.60;;;;;;5079451;28;20244;-48
2021/06/26 11:10:09;;;;;;;13.82;10.43;;;23.50;95.40;;;;;;5084451;28;20683;-53
2021/06/26 11:12:40;;;;;;;11.65;10.25;;;23.50;95.80;;;;;;5084222;28;20194;-48
2021/06/26 11:15:08;;;;;;;11.65;10.48;;;23.60;96.00;;;;;;5075381;28;20194;-47
2021/06/26 11:17:37;;;;;;;11.77;10.60;;;23.60;95.90;;;;;;5091331;28;20200;-49
2021/06/26 11:20:05;;;;;;;11.77;9.85;;;23.60;95.70;;;;;;5067006;28;20226;-51
2021/06/26 11:22:32;;;;;;;10.25;8.98;;;23.50;95.60;;;;;;5082976;28;20229;-50
2021/06/26 11:24:59;;;;;;;12.48;9.60;;;23.40;96.00;;;;;;5094644;28;20235;-49
2021/06/26 11:27:25;;;;;;;9.88;8.85;;;23.40;95.50;;;;;;5076425;28;20215;-49
2021/06/26 11:30:00;;;;;;;11.38;9.27;;;23.40;95.40;;;;;;5097671;28;20433;-52
2021/06/26 11:32:29;;;;;;;9.55;8.75;;;23.30;95.40;;;;;;5082729;28;20221;-47
2021/06/26 11:34:56;;;;;;;11.25;9.40;;;23.40;95.80;;;;;;5098830;28;20196;-47
2021/06/26 11:37:24;;;;;;;12.23;10.90;;;23.60;95.60;;;;;;5085380;28;20231;-47
2021/06/26 11:39:51;;;;;;;11.15;9.90;;;23.60;95.20;;;;;;5093541;28;20344;-47
2021/06/26 11:42:19;;;;;;;9.88;8.88;;;23.50;95.10;;;;;;5088105;27;20208;-47
2021/06/26 11:44:48;;;;;;;12.20;10.30;;;23.50;95.50;;;;;;5093531;27;20620;-51
2021/06/26 11:47:16;;;;;;;12.65;9.88;;;23.50;95.00;;;;;;5090080;28;20197;-50
2021/06/26 11:49:45;;;;;;;12.68;9.45;;;23.80;94.80;;;;;;5088626;28;20221;-52
2021/06/26 11:52:13;;;;;;;12.48;8.63;;;23.90;94.60;;;;;;5093652;28;20210;-46
2021/06/26 11:54:41;;;;;;;9.85;8.95;;;24.10;94.10;;;;;;5090485;28;20202;-49
2021/06/26 11:57:12;;;;;;;11.40;8.25;;;24.20;93.60;;;;;;5079252;28;20210;-49
2021/06/26 11:59:45;;;;;;;8.88;7.15;;;24.10;93.50;;;;;;5096562;27;20229;-51
2021/06/26 12:02:13;;;;;;;10.77;9.73;;;24.10;94.00;;;;;;5098001;27;20197;-46
2021/06/26 12:04:41;;;;;;;11.80;10.35;;;24.10;93.30;;;;;;5083166;28;20260;-52
2021/06/26 12:07:09;;;;;;;11.13;9.95;;;24.10;93.40;;;;;;5084278;28;20231;-50
2021/06/26 12:09:38;;;;;;;9.07;8.18;;;24.00;93.70;;;;;;5083688;28;20277;-54
2021/06/26 12:12:06;;;;;;;9.05;8.25;;;24.00;94.20;;;;;;5074420;28;20205;-48
2021/06/26 12:14:34;;;;;;;10.35;8.50;;;23.80;94.70;;;;;;5111955;27;20202;-52
2021/06/26 12:17:07;;;;;;;12.52;10.13;;;23.80;95.30;;;;;;5087621;27;20213;-48
2021/06/26 12:19:34;;;;;;;10.27;9.27;;;23.80;94.70;;;;;;5083094;28;20613;-53
2021/06/26 12:22:04;;;;;;;10.35;8.82;;;23.80;94.80;;;;;;5083009;28;20201;-46
2021/06/26 12:24:33;;;;;;;10.25;8.35;;;23.80;95.10;;;;;;5092118;27;20204;-51
2021/06/26 12:27:20;;;;;;;8.82;8.02;;;23.90;95.60;;;;;;5073442;28;20232;-46
2021/06/26 12:29:55;;;;;;;9.07;8.27;;;23.90;95.20;;;;;;5102061;27;20216;-50
2021/06/26 12:32:27;;;;;;;9.98;8.63;;;23.90;95.60;;;;;;5085382;28;20196;-49
2021/06/26 12:34:54;;;;;;;14.88;10.27;;;23.90;95.80;;;;;;5089014;27;20261;-51
2021/06/26 12:37:29;;;;;;;28.33;9.55;;;23.90;96.20;;;;;;5103604;27;20668;-47
2021/06/26 12:40:09;;;;;;;19.95;9.85;;;24.10;96.60;;;;;;5075759;28;20223;-50
2021/06/26 12:42:40;;;;;;;11.15;9.70;;;24.20;95.10;;;;;;5077372;27;20750;-53
2021/06/26 12:45:08;;;;;;;11.35;10.25;;;24.10;95.30;;;;;;5091268;27;20208;-46